Time;durP1;ratioP1;P1;durP2;ratioP2;P2;SDS_P1;SDS_P2;PMS_P1;PMS_P2;Temp;Humidity;BMP_temperature;BMP_pressure;BME280_temperature;BME280_humidity;BME280_pressure;Samples;Min_cycle;Max_cycle;Signal;HPM_P1;HPM_P2
2022/05/13 00:01:58;;;;;;;4.73;3.70;;;;;;;26.10;42.14;100348.56;20454765;28;99937;-80
2022/05/13 00:11:58;;;;;;;5.15;3.80;;;;;;;26.08;42.50;100353.22;20478762;28;101029;-80
2022/05/13 00:22:00;;;;;;;4.15;3.70;;;;;;;26.06;42.21;100363.94;20477712;28;97291;-80
2022/05/13 00:32:01;;;;;;;3.40;3.10;;;;;;;26.06;42.41;100363.94;20470470;28;97056;-79
2022/05/13 00:42:09;;;;;;;6.32;3.30;;;;;;;26.05;42.49;100362.28;20462070;28;96923;-80
2022/05/13 00:52:10;;;;;;;4.28;3.33;;;;;;;26.03;42.57;100373.03;20468361;28;97813;-79
2022/05/13 01:02:11;;;;;;;3.97;3.23;;;;;;;26.01;42.53;100392.75;20460305;28;101313;-80
2022/05/13 01:12:17;;;;;;;3.97;3.30;;;;;;;25.99;42.41;100374.34;20466217;28;97749;-79
2022/05/13 01:22:17;;;;;;;4.10;3.33;;;;;;;25.96;42.54;100360.53;20476889;28;97325;-80
2022/05/13 01:32:18;;;;;;;3.70;3.05;;;;;;;25.98;42.68;100370.00;20483357;28;97401;-79
2022/05/13 01:42:19;;;;;;;4.15;3.13;;;;;;;25.94;42.67;100375.75;20483748;28;97231;-79
2022/05/13 01:52:20;;;;;;;;;;;;;;;25.92;42.88;100354.69;20478340;28;97042;-79
2022/05/13 02:02:21;;;;;;;3.75;2.90;;;;;;;25.91;42.57;100352.19;20477828;28;97028;-79
2022/05/13 02:12:21;;;;;;;3.97;2.90;;;;;;;25.89;42.54;100365.63;20478610;28;97044;-79
2022/05/13 02:22:22;;;;;;;2.92;2.60;;;;;;;25.82;42.81;100362.72;20468197;28;101081;-80
2022/05/13 02:32:22;;;;;;;3.25;2.95;;;;;;;25.80;43.17;100363.88;20466078;28;98721;-79
2022/05/13 02:42:23;;;;;;;3.97;2.85;;;;;;;25.80;42.86;100355.91;20457381;28;97293;-79
2022/05/13 02:52:24;;;;;;;2.93;2.63;;;;;;;25.81;42.89;100366.34;20463852;28;98134;-80
2022/05/13 03:02:24;;;;;;;2.35;2.15;;;;;;;25.83;42.75;100366.19;20451252;28;98023;-78
2022/05/13 03:12:25;;;;;;;2.60;2.40;;;;;;;25.82;42.57;100368.03;20486907;28;98224;-79
2022/05/13 03:22:26;;;;;;;3.07;2.17;;;;;;;25.82;43.01;100401.69;20455454;28;97892;-79
2022/05/13 03:32:26;;;;;;;3.40;2.20;;;;;;;25.79;43.06;100420.53;20462321;28;97863;-79
2022/05/13 03:42:27;;;;;;;3.50;2.40;;;;;;;25.74;42.93;100410.38;20463772;28;98352;-78
2022/05/13 03:52:29;;;;;;;2.53;2.17;;;;;;;25.73;43.26;100425.47;20467074;28;97604;-79
2022/05/13 04:02:29;;;;;;;2.30;2.10;;;;;;;25.77;42.78;100427.81;20461392;28;97768;-78
2022/05/13 04:22:50;;;;;;;7.38;2.45;;;;;;;25.58;41.18;100448.13;20464201;28;97147;-74
2022/05/13 04:32:51;;;;;;;4.38;2.30;;;;;;;25.15;41.34;100430.97;20450022;28;101350;-78
2022/05/13 04:42:52;;;;;;;3.60;2.40;;;;;;;24.84;42.58;100444.41;20455409;28;97342;-77
2022/05/13 04:52:52;;;;;;;9.77;2.90;;;;;;;24.75;42.86;100456.69;20460345;28;97747;-82
2022/05/13 05:02:53;;;;;;;5.85;2.45;;;;;;;25.00;42.82;100460.56;20429861;28;98622;-76
2022/05/13 05:12:55;;;;;;;3.63;2.40;;;;;;;24.59;43.79;100467.81;20447664;28;97841;-78
2022/05/13 05:22:55;;;;;;;7.55;2.40;;;;;;;24.34;44.21;100475.34;20458187;28;98473;-78
2022/05/13 05:32:56;;;;;;;10.57;2.80;;;;;;;24.33;44.10;100484.25;20440001;28;98754;-79
2022/05/13 05:43:01;;;;;;;4.43;2.40;;;;;;;24.29;43.79;100496.91;20474413;28;97175;-81
2022/05/13 05:53:02;;;;;;;4.60;2.05;;;;;;;24.29;43.38;100494.28;20462014;28;100277;-78
2022/05/13 06:03:03;;;;;;;5.97;2.30;;;;;;;24.23;43.49;100509.84;20450761;28;97561;-78
2022/05/13 06:13:07;;;;;;;3.00;2.33;;;;;;;24.29;43.33;100517.22;20453128;28;99464;-78
2022/05/13 06:23:08;;;;;;;4.25;2.00;;;;;;;24.34;43.38;100522.97;20475251;28;96963;-78
2022/05/13 06:33:09;;;;;;;4.85;1.95;;;;;;;24.29;43.48;100506.66;20470671;28;97321;-78
2022/05/13 06:43:09;;;;;;;3.63;1.90;;;;;;;24.44;42.89;100504.47;20440459;28;97745;-78
2022/05/13 06:53:11;;;;;;;2.60;1.93;;;;;;;24.67;41.62;100514.81;20457431;28;97826;-77
2022/05/13 07:03:17;;;;;;;2.33;1.70;;;;;;;24.58;40.72;100524.38;20444192;28;98787;-80
2022/05/13 07:13:18;;;;;;;4.22;1.80;;;;;;;24.65;40.82;100527.34;20475141;28;96958;-79
2022/05/13 07:23:19;;;;;;;2.77;1.50;;;;;;;24.59;40.31;100524.25;20472530;28;99091;-79
2022/05/13 07:33:22;;;;;;;;;;;;;;;24.62;40.37;100516.03;20481854;28;97255;-78
2022/05/13 07:43:23;;;;;;;3.22;1.60;;;;;;;24.60;40.24;100509.22;20481926;28;97076;-77
2022/05/13 07:53:23;;;;;;;2.22;2.03;;;;;;;24.70;39.80;100520.66;20477499;28;97617;-78
2022/05/13 08:03:26;;;;;;;4.47;1.50;;;;;;;24.73;39.24;100522.19;20470708;28;97207;-78
2022/05/13 08:13:30;;;;;;;3.58;1.63;;;;;;;24.66;39.28;100540.47;20448052;28;97156;-81
2022/05/13 08:23:31;;;;;;;5.20;2.40;;;;;;;24.69;40.55;100544.63;20474560;28;97664;-77
2022/05/13 08:33:32;;;;;;;3.40;1.70;;;;;;;24.57;41.16;100549.19;20490712;28;97532;-77
2022/05/13 08:43:38;;;;;;;5.77;2.10;;;;;;;24.44;41.53;100552.09;20495038;28;96989;-76
2022/05/13 08:53:53;;;;;;;4.00;1.70;;;;;;;24.42;41.63;100551.41;20488315;28;97653;-77
2022/05/13 09:04:00;;;;;;;3.38;1.65;;;;;;;24.44;41.80;100544.16;20477220;28;100447;-76
2022/05/13 09:14:31;;;;;;;3.33;1.73;;;;;;;24.45;42.14;100533.44;20478517;28;97260;-76
2022/05/13 09:24:32;;;;;;;2.40;2.20;;;;;;;24.52;43.50;100522.28;20458094;28;98388;-77
2022/05/13 09:34:46;;;;;;;4.30;1.80;;;;;;;24.52;43.26;100531.06;20468237;28;97733;-77
2022/05/13 09:44:47;;;;;;;1.95;1.75;;;;;;;24.44;42.22;100541.53;20458413;28;97321;-77
2022/05/13 09:54:48;;;;;;;3.80;2.20;;;;;;;24.49;42.67;100544.59;20467465;28;97700;-78
2022/05/13 10:05:12;;;;;;;5.65;1.95;;;;;;;24.50;43.66;100545.41;20476092;28;97016;-77
2022/05/13 10:15:14;;;;;;;4.07;2.00;;;;;;;24.66;44.60;100540.47;20439618;28;98216;-77
2022/05/13 10:25:20;;;;;;;8.43;2.17;;;;;;;24.80;43.46;100548.97;20460313;28;97189;-79
2022/05/13 10:35:26;;;;;;;7.15;2.10;;;;;;;24.97;43.41;100532.38;20443663;28;98106;-77
2022/05/13 10:45:30;;;;;;;3.65;2.30;;;;;;;25.16;43.79;100531.53;20421806;28;98721;-77
2022/05/13 10:55:52;;;;;;;4.97;2.20;;;;;;;25.32;44.16;100520.34;20430396;28;97954;-78
2022/05/13 11:06:13;;;;;;;4.68;1.95;;;;;;;25.38;42.67;100529.56;20412891;28;98628;-78
2022/05/13 11:16:13;;;;;;;2.28;1.85;;;;;;;25.42;41.66;100521.16;20451525;28;97709;-78
2022/05/13 11:26:33;;;;;;;6.80;1.95;;;;;;;25.51;42.05;100500.94;20456526;28;97717;-77
2022/05/13 11:36:37;;;;;;;2.78;1.95;;;;;;;25.61;41.32;100482.31;20481957;28;97951;-76
2022/05/13 11:47:08;;;;;;;3.50;1.83;;;;;;;25.68;40.70;100483.41;20466902;28;98174;-77
2022/05/13 11:57:21;;;;;;;3.35;1.90;;;;;;;25.63;40.50;100482.19;20431247;28;97796;-75
2022/05/13 12:07:27;;;;;;;5.20;1.90;;;;;;;25.65;40.48;100477.56;20461551;28;96959;-78
2022/05/13 12:18:01;;;;;;;2.05;1.42;;;;;;;25.59;39.74;100486.09;20383173;28;97641;-77
2022/05/13 12:28:10;;;;;;;5.07;1.58;;;;;;;25.53;38.87;100495.47;20298618;28;100391;-76
2022/05/13 12:38:11;;;;;;;4.55;1.58;;;;;;;25.51;38.82;100481.50;20274190;28;100300;-78
2022/05/13 12:48:14;;;;;;;3.63;1.70;;;;;;;25.48;38.17;100472.03;20350476;28;96931;-76
2022/05/13 12:58:18;;;;;;;3.95;1.70;;;;;;;25.50;37.86;100459.47;20415020;28;100594;-76
2022/05/13 13:08:22;;;;;;;3.00;1.48;;;;;;;25.44;37.08;100473.31;20456239;28;103104;-76
2022/05/13 13:18:31;;;;;;;4.18;1.40;;;;;;;24.98;37.48;100453.75;20456948;28;97654;-76
2022/05/13 13:28:35;;;;;;;3.67;1.40;;;;;;;24.70;36.90;100443.06;20470317;28;97786;-78
2022/05/13 13:38:37;;;;;;;2.67;1.40;;;;;;;24.52;37.86;100427.00;20459254;28;97327;-79
2022/05/13 13:48:49;;;;;;;10.57;1.57;;;;;;;24.43;38.26;100407.50;20471559;28;97519;-79
2022/05/13 13:59:25;;;;;;;2.17;1.00;;;;;;;24.43;38.51;100389.81;20474719;28;97266;-81
2022/05/13 14:09:43;;;;;;;2.28;1.40;;;;;;;24.56;39.44;100376.28;20470352;28;96956;-81
2022/05/13 14:19:49;;;;;;;8.35;1.70;;;;;;;24.36;40.98;100398.44;20491759;28;99637;-82
2022/05/13 14:29:56;;;;;;;3.83;2.70;;;;;;;24.60;41.88;100393.56;20494823;28;101641;-78
2022/05/13 14:39:58;;;;;;;3.45;2.50;;;;;;;24.66;42.31;100348.97;20447800;28;97100;-78
2022/05/13 14:50:19;;;;;;;5.82;1.80;;;;;;;24.80;40.81;100319.41;20447196;28;98453;-76
2022/05/13 15:00:22;;;;;;;3.83;1.40;;;;;;;25.12;40.71;100323.47;20400080;28;98787;-80
2022/05/13 15:10:24;;;;;;;2.90;1.55;;;;;;;25.37;39.75;100334.38;20430999;28;97246;-80
2022/05/13 15:20:25;;;;;;;4.80;1.88;;;;;;;25.80;39.04;100340.81;20477566;28;97530;-80
2022/05/13 15:30:28;;;;;;;3.13;1.70;;;;;;;26.44;37.85;100334.56;20470477;28;100906;-79
2022/05/13 15:40:29;;;;;;;2.33;1.73;;;;;;;26.71;37.64;100320.34;20454756;28;97509;-76
2022/05/13 16:00:49;;;;;;;4.60;1.60;;;;;;;26.50;37.19;100305.59;20423963;28;99502;-76
2022/05/13 16:10:49;;;;;;;4.05;2.13;;;;;;;26.34;37.35;100293.06;20429377;28;99089;-76
2022/05/13 16:20:52;;;;;;;3.50;1.57;;;;;;;26.26;37.43;100273.59;20440206;28;97641;-76
2022/05/13 16:30:52;;;;;;;2.63;1.58;;;;;;;26.12;37.90;100275.81;20440276;28;97009;-76
2022/05/13 16:40:53;;;;;;;5.17;1.80;;;;;;;26.03;37.69;100274.88;20436691;28;97373;-76
2022/05/13 16:50:53;;;;;;;2.03;1.50;;;;;;;25.97;37.76;100264.88;20466108;28;101489;-76
2022/05/13 17:00:54;;;;;;;3.35;1.50;;;;;;;25.95;37.92;100258.06;20453715;28;100040;-77
2022/05/13 17:21:13;;;;;;;3.70;2.20;;;;;;;25.80;38.20;100253.28;20429552;28;100963;-76
2022/05/13 17:31:14;;;;;;;5.23;2.13;;;;;;;25.40;39.06;100258.06;20432751;28;100395;-80
2022/05/13 17:41:15;;;;;;;2.63;2.13;;;;;;;25.51;39.13;100264.13;20452565;28;100270;-78
2022/05/13 17:51:15;;;;;;;3.75;2.72;;;;;;;25.52;39.87;100271.94;20463548;28;97288;-79
2022/05/13 18:01:16;;;;;;;6.53;2.40;;;;;;;25.47;40.14;100281.31;20455073;28;97185;-78
2022/05/13 18:11:17;;;;;;;7.70;2.65;;;;;;;25.38;40.64;100283.06;20461792;28;96960;-78
2022/05/13 18:21:19;;;;;;;5.03;3.00;;;;;;;25.34;40.49;100287.78;20467686;28;99546;-78
2022/05/13 18:31:21;;;;;;;;;;;;;;;25.29;40.73;100305.94;20460501;28;97295;-79
2022/05/13 18:51:41;;;;;;;6.40;3.42;;;;;;;25.12;41.54;100323.47;20446509;28;98495;-78
2022/05/13 19:01:42;;;;;;;4.57;3.10;;;;;;;25.12;41.55;100320.84;20451430;27;100671;-79
2022/05/13 19:11:42;;;;;;;5.47;3.03;;;;;;;25.12;42.66;100327.94;20434521;28;97170;-77
2022/05/13 19:21:43;;;;;;;5.28;3.03;;;;;;;25.22;42.10;100336.69;20423047;27;98256;-78
2022/05/13 19:31:43;;;;;;;6.03;3.20;;;;;;;25.32;42.07;100344.59;20471636;27;99037;-78
2022/05/13 19:41:44;;;;;;;3.08;2.72;;;;;;;25.34;41.86;100345.25;20458043;28;97680;-78
2022/05/13 19:51:45;;;;;;;3.10;2.70;;;;;;;25.35;42.00;100341.63;20464906;28;97527;-76
2022/05/13 20:01:46;;;;;;;4.82;2.90;;;;;;;25.33;42.27;100348.88;20444773;28;97786;-78
2022/05/13 20:11:47;;;;;;;3.80;2.60;;;;;;;25.30;42.52;100347.34;20496923;28;97622;-75
2022/05/13 20:32:08;;;;;;;4.13;2.80;;;;;;;25.30;42.21;100354.50;20472105;28;99515;-76
2022/05/13 20:42:10;;;;;;;4.20;2.75;;;;;;;25.35;42.07;100349.56;20440724;28;96914;-77
2022/05/13 20:52:11;;;;;;;;;;;;;;;25.34;42.29;100346.09;20392558;28;97529;-76
2022/05/13 21:02:14;;;;;;;4.63;2.60;;;;;;;25.34;42.30;100345.25;20388697;28;98538;-75
2022/05/13 21:12:16;;;;;;;3.28;2.50;;;;;;;25.34;42.34;100339.94;20389631;28;97404;-75
2022/05/13 21:22:17;;;;;;;4.60;2.60;;;;;;;25.33;42.50;100355.03;20378348;28;98381;-75
2022/05/13 21:42:38;;;;;;;3.42;2.63;;;;;;;25.37;42.27;100359.06;20394907;28;96856;-75
2022/05/13 21:52:38;;;;;;;2.50;2.17;;;;;;;25.39;42.41;100374.84;20429406;28;96912;-75
2022/05/13 22:02:39;;;;;;;4.30;2.40;;;;;;;25.38;42.67;100352.78;20403922;28;97304;-77
2022/05/13 22:12:40;;;;;;;3.67;2.33;;;;;;;25.34;42.41;100348.75;20399907;28;97865;-76
2022/05/13 22:22:40;;;;;;;4.60;2.10;;;;;;;25.35;42.43;100345.13;20400918;28;96990;-76
2022/05/13 22:32:41;;;;;;;2.58;2.00;;;;;;;25.35;42.28;100349.56;20395272;28;97679;-76
2022/05/13 22:42:41;;;;;;;3.03;2.10;;;;;;;25.34;42.74;100342.59;20392802;28;97085;-76
2022/05/13 22:52:42;;;;;;;2.00;1.80;;;;;;;25.33;42.80;100347.06;20396714;28;100065;-75
2022/05/13 23:02:42;;;;;;;2.72;2.00;;;;;;;25.35;42.53;100346.91;20383841;28;99232;-76
2022/05/13 23:12:43;;;;;;;3.35;2.10;;;;;;;25.33;42.46;100343.56;20379739;28;101421;-76
2022/05/13 23:22:43;;;;;;;2.97;1.90;;;;;;;25.33;42.70;100343.56;20381064;28;98564;-76
2022/05/13 23:32:44;;;;;;;2.85;1.90;;;;;;;25.31;42.78;100337.59;20375774;28;97914;-76
2022/05/13 23:42:45;;;;;;;3.73;1.80;;;;;;;25.31;42.72;100345.56;20384430;28;97944;-76
